Time;durP1;ratioP1;P1;durP2;ratioP2;P2;SDS_P1;SDS_P2;PMS_P1;PMS_P2;Temp;Humidity;BMP_temperature;BMP_pressure;BME280_temperature;BME280_humidity;BME280_pressure;Samples;Min_cycle;Max_cycle;Signal;HPM_P1;HPM_P2
2021/05/15 00:00:14;;;;;;;0.60;0.60;;;10.10;99.90;;;;;;5054204;28;20450;-77
2021/05/15 00:02:41;;;;;;;0.97;0.50;;;10.10;99.90;;;;;;5054111;28;20515;-79
2021/05/15 00:05:09;;;;;;;2.20;0.60;;;10.10;99.90;;;;;;5054142;28;20453;-82
2021/05/15 00:07:35;;;;;;;0.63;0.60;;;10.10;99.90;;;;;;5054056;28;20583;-82
2021/05/15 00:10:03;;;;;;;0.60;0.50;;;10.10;99.90;;;;;;5053953;28;20477;-82
2021/05/15 00:12:30;;;;;;;0.50;0.50;;;10.10;99.90;;;;;;5053885;28;20569;-82
2021/05/15 00:14:57;;;;;;;0.60;0.60;;;10.10;99.90;;;;;;5053960;28;20433;-82
2021/05/15 00:17:23;;;;;;;1.13;0.70;;;10.10;99.90;;;;;;5053606;28;20445;-82
2021/05/15 00:19:50;;;;;;;0.93;0.70;;;10.00;99.90;;;;;;5053587;28;20465;-82
2021/05/15 00:22:17;;;;;;;2.20;0.50;;;10.00;99.90;;;;;;5053502;28;20949;-82
2021/05/15 00:24:43;;;;;;;1.00;0.60;;;10.00;99.90;;;;;;5053731;28;20445;-82
2021/05/15 00:27:09;;;;;;;0.83;0.50;;;10.00;99.90;;;;;;5053689;28;20454;-82
2021/05/15 00:29:36;;;;;;;0.57;0.57;;;9.90;99.90;;;;;;5053291;28;20829;-82
2021/05/15 00:32:03;;;;;;;0.50;0.50;;;9.90;99.90;;;;;;5053536;28;20555;-81
2021/05/15 00:34:30;;;;;;;3.00;0.60;;;9.90;99.90;;;;;;5053291;28;20515;-82
2021/05/15 00:36:56;;;;;;;0.50;0.50;;;9.90;99.90;;;;;;5053258;28;20965;-82
2021/05/15 00:39:22;;;;;;;1.13;0.60;;;9.90;99.90;;;;;;5053429;28;20546;-82
2021/05/15 00:41:48;;;;;;;0.67;0.67;;;9.90;99.90;;;;;;5053540;28;20442;-82
2021/05/15 00:44:18;;;;;;;0.50;0.50;;;9.90;99.90;;;;;;5053171;28;20508;-82
2021/05/15 00:46:46;;;;;;;0.67;0.50;;;9.90;99.90;;;;;;5052936;28;20574;-82
2021/05/15 00:49:12;;;;;;;0.70;0.60;;;9.90;99.90;;;;;;5053379;28;20891;-82
2021/05/15 00:51:39;;;;;;;0.60;0.60;;;9.80;99.90;;;;;;5053305;28;20486;-82
2021/05/15 00:54:06;;;;;;;0.67;0.67;;;9.80;99.90;;;;;;5053024;28;20949;-82
2021/05/15 00:56:33;;;;;;;0.83;0.60;;;9.80;99.90;;;;;;5053315;28;20457;-82
2021/05/15 00:58:59;;;;;;;0.77;0.70;;;9.70;99.90;;;;;;5053186;28;20481;-82
2021/05/15 01:01:26;;;;;;;0.93;0.60;;;9.70;99.90;;;;;;5053240;28;20450;-82
2021/05/15 01:03:54;;;;;;;2.97;0.60;;;9.70;99.90;;;;;;5053206;28;20457;-81
2021/05/15 01:06:20;;;;;;;0.60;0.47;;;9.60;99.90;;;;;;5053204;28;20456;-82
2021/05/15 01:08:47;;;;;;;0.60;0.60;;;9.60;99.90;;;;;;5052832;28;20993;-81
2021/05/15 01:11:14;;;;;;;0.60;0.60;;;9.50;99.90;;;;;;5053104;28;20449;-81
2021/05/15 01:13:40;;;;;;;0.90;0.63;;;9.50;99.90;;;;;;5052817;28;20897;-82
2021/05/15 01:16:07;;;;;;;1.67;0.70;;;9.50;99.90;;;;;;5053151;28;20456;-82
2021/05/15 01:18:33;;;;;;;0.60;0.60;;;9.50;99.90;;;;;;5053025;28;20465;-81
2021/05/15 01:21:01;;;;;;;1.07;0.60;;;9.50;99.90;;;;;;5053114;28;20446;-82
2021/05/15 01:23:28;;;;;;;0.60;0.60;;;9.40;99.90;;;;;;5053066;28;20528;-82
2021/05/15 01:25:54;;;;;;;0.60;0.60;;;9.40;99.90;;;;;;5052736;28;20833;-81
2021/05/15 01:28:20;;;;;;;1.43;0.60;;;9.40;99.90;;;;;;5052964;28;20473;-82
2021/05/15 01:30:47;;;;;;;0.60;0.60;;;9.40;99.90;;;;;;5055046;28;20476;-81
2021/05/15 01:33:13;;;;;;;1.23;0.63;;;9.30;99.90;;;;;;5056903;28;20543;-82
2021/05/15 01:35:39;;;;;;;0.60;0.60;;;9.30;99.90;;;;;;5056940;28;20461;-82
2021/05/15 01:38:06;;;;;;;1.10;0.60;;;9.20;99.90;;;;;;5056520;28;20885;-82
2021/05/15 01:40:32;;;;;;;1.27;0.67;;;9.20;99.90;;;;;;5056853;28;20453;-82
2021/05/15 01:42:59;;;;;;;2.70;0.70;;;9.20;99.90;;;;;;5056843;28;20456;-82
2021/05/15 01:45:27;;;;;;;0.57;0.50;;;9.10;99.90;;;;;;5056241;28;20797;-82
2021/05/15 01:47:53;;;;;;;0.70;0.60;;;9.20;99.90;;;;;;5056610;28;20498;-82
2021/05/15 01:50:20;;;;;;;1.77;0.80;;;9.10;99.90;;;;;;5056818;28;20457;-82
2021/05/15 01:52:46;;;;;;;0.50;0.50;;;9.10;99.90;;;;;;5056469;28;20481;-82
2021/05/15 01:55:19;;;;;;;0.73;0.67;;;9.10;99.90;;;;;;5056259;28;20956;-82
2021/05/15 01:57:46;;;;;;;0.77;0.50;;;9.10;99.90;;;;;;5056478;28;20441;-82
2021/05/15 02:00:13;;;;;;;1.20;0.60;;;9.10;99.90;;;;;;5056484;28;20450;-82
2021/05/15 02:02:39;;;;;;;0.60;0.60;;;9.10;99.90;;;;;;5056433;28;20445;-82
2021/05/15 02:05:06;;;;;;;1.13;0.70;;;9.10;99.90;;;;;;5056369;28;20449;-82
2021/05/15 02:07:32;;;;;;;0.93;0.70;;;9.10;99.90;;;;;;5056298;28;20449;-82
2021/05/15 02:09:58;;;;;;;0.80;0.60;;;9.10;99.90;;;;;;5056194;28;20470;-82
2021/05/15 02:12:26;;;;;;;1.17;0.87;;;9.10;99.90;;;;;;5055867;28;21000;-82
2021/05/15 02:14:52;;;;;;;1.20;0.70;;;9.10;99.90;;;;;;5055910;28;20957;-82
2021/05/15 02:17:18;;;;;;;1.17;0.70;;;9.10;99.90;;;;;;5055859;28;20453;-82
2021/05/15 02:19:44;;;;;;;1.17;0.70;;;9.10;99.90;;;;;;5055793;28;20454;-82
2021/05/15 02:22:10;;;;;;;0.80;0.70;;;9.10;99.90;;;;;;5056067;28;20499;-81
2021/05/15 02:24:37;;;;;;;0.60;0.60;;;9.10;99.90;;;;;;5056056;28;20446;-82
2021/05/15 02:27:03;;;;;;;2.03;0.60;;;9.10;99.90;;;;;;5055922;28;20458;-82
2021/05/15 02:29:31;;;;;;;0.60;0.60;;;9.10;99.90;;;;;;5055554;28;20470;-81
2021/05/15 02:31:57;;;;;;;1.57;1.27;;;9.00;99.90;;;;;;5055508;28;20478;-81
2021/05/15 02:34:23;;;;;;;0.70;0.70;;;9.00;99.90;;;;;;5056151;28;20434;-82
2021/05/15 02:36:49;;;;;;;0.60;0.60;;;8.90;99.90;;;;;;5055798;28;20449;-82
2021/05/15 02:39:15;;;;;;;1.60;0.70;;;8.90;99.90;;;;;;5055660;28;20474;-82
2021/05/15 02:41:42;;;;;;;0.60;0.60;;;8.90;99.90;;;;;;5055309;28;20442;-82
2021/05/15 02:44:08;;;;;;;1.77;0.90;;;8.90;99.90;;;;;;5055391;28;20509;-82
2021/05/15 02:46:35;;;;;;;0.80;0.70;;;8.90;99.90;;;;;;5055097;28;20477;-81
2021/05/15 02:49:01;;;;;;;0.60;0.60;;;8.90;99.90;;;;;;5055516;28;20466;-82
2021/05/15 02:51:28;;;;;;;0.70;0.70;;;8.80;99.90;;;;;;5055768;28;20441;-82
2021/05/15 02:53:55;;;;;;;0.70;0.70;;;8.80;99.90;;;;;;5055445;28;20500;-81
2021/05/15 02:56:22;;;;;;;0.93;0.93;;;8.70;99.90;;;;;;5055677;28;20529;-81
2021/05/15 02:58:48;;;;;;;1.40;0.80;;;8.70;99.90;;;;;;5055311;28;20466;-82
2021/05/15 03:01:14;;;;;;;0.80;0.80;;;8.70;99.90;;;;;;5055045;28;20964;-82
2021/05/15 03:03:41;;;;;;;1.37;0.70;;;8.70;99.90;;;;;;5055306;28;20478;-82
2021/05/15 03:06:08;;;;;;;0.73;0.73;;;8.70;99.90;;;;;;5055249;28;20461;-82
2021/05/15 03:08:34;;;;;;;1.17;0.80;;;8.60;99.90;;;;;;5054857;28;20469;-82
2021/05/15 03:11:00;;;;;;;0.60;0.60;;;8.60;99.90;;;;;;5055165;28;20452;-82
2021/05/15 03:13:27;;;;;;;0.73;0.70;;;8.50;99.90;;;;;;5055014;28;20547;-81
2021/05/15 03:15:54;;;;;;;2.87;0.90;;;8.50;99.90;;;;;;5055055;28;20465;-82
2021/05/15 03:18:20;;;;;;;1.43;0.80;;;8.40;99.90;;;;;;5054943;28;20470;-82
2021/05/15 03:20:47;;;;;;;0.80;0.80;;;8.50;99.90;;;;;;5054733;28;20937;-82
2021/05/15 03:23:14;;;;;;;1.50;1.40;;;8.50;99.90;;;;;;5054904;28;20441;-82
2021/05/15 03:25:40;;;;;;;1.60;1.10;;;8.50;99.90;;;;;;5055158;28;20529;-81
2021/05/15 03:28:06;;;;;;;0.80;0.80;;;8.50;99.90;;;;;;5054755;28;20454;-82
2021/05/15 03:30:33;;;;;;;1.13;1.10;;;8.40;99.90;;;;;;5054629;28;20465;-83
2021/05/15 03:32:59;;;;;;;1.73;1.10;;;8.40;99.90;;;;;;5054647;28;20477;-82
2021/05/15 03:35:26;;;;;;;2.60;0.80;;;8.40;99.90;;;;;;5054701;28;20452;-82
2021/05/15 03:37:53;;;;;;;0.80;0.80;;;8.40;99.90;;;;;;5054252;28;20822;-82
2021/05/15 03:40:20;;;;;;;2.27;0.90;;;8.40;99.90;;;;;;5054587;28;20442;-82
2021/05/15 03:42:47;;;;;;;1.10;0.80;;;8.40;99.90;;;;;;5054220;28;20442;-82
2021/05/15 03:45:14;;;;;;;1.03;0.80;;;8.40;99.90;;;;;;5054276;28;20503;-81
2021/05/15 03:47:41;;;;;;;0.80;0.80;;;8.40;99.90;;;;;;5054495;28;20430;-81
2021/05/15 03:50:08;;;;;;;1.10;1.00;;;8.40;99.90;;;;;;5054156;28;20500;-82
2021/05/15 03:52:34;;;;;;;0.70;0.70;;;8.40;99.90;;;;;;5053237;28;20996;-82
2021/05/15 03:55:02;;;;;;;0.80;0.80;;;8.50;99.90;;;;;;5054303;28;20450;-82
2021/05/15 03:57:29;;;;;;;0.93;0.93;;;8.50;99.90;;;;;;5054239;28;20507;-81
2021/05/15 03:59:55;;;;;;;1.20;0.90;;;8.50;99.90;;;;;;5054174;28;20474;-82
2021/05/15 04:02:22;;;;;;;1.20;0.80;;;8.60;99.90;;;;;;5053973;28;20441;-81
2021/05/15 04:04:49;;;;;;;0.97;0.67;;;8.60;99.90;;;;;;5054147;28;20457;-82
2021/05/15 04:07:16;;;;;;;0.73;0.73;;;8.60;99.90;;;;;;5054091;28;20587;-82
2021/05/15 04:09:42;;;;;;;1.50;0.83;;;8.60;99.90;;;;;;5053957;28;20474;-82
2021/05/15 04:12:10;;;;;;;1.27;0.97;;;8.60;99.90;;;;;;5053961;28;20485;-81
2021/05/15 04:14:40;;;;;;;1.47;0.80;;;8.60;99.90;;;;;;5053945;28;20457;-82
2021/05/15 04:19:57;;;;;;;2.03;0.83;;;8.70;99.90;;;;;;5037868;28;20454;-82
2021/05/15 04:22:25;;;;;;;0.70;0.70;;;8.70;99.90;;;;;;5053811;28;20445;-82
2021/05/15 04:24:51;;;;;;;0.87;0.87;;;8.80;99.90;;;;;;5053741;28;20499;-82
2021/05/15 04:27:18;;;;;;;0.73;0.73;;;8.80;99.90;;;;;;5053781;28;20808;-82
2021/05/15 04:29:45;;;;;;;0.77;0.73;;;8.80;99.90;;;;;;5053634;28;20468;-81
2021/05/15 04:32:12;;;;;;;0.90;0.90;;;8.80;99.90;;;;;;5053581;28;20844;-81
2021/05/15 04:34:38;;;;;;;0.80;0.80;;;8.80;99.90;;;;;;5053408;28;20437;-82
2021/05/15 04:37:04;;;;;;;0.70;0.70;;;8.90;99.90;;;;;;5053587;28;20453;-82
2021/05/15 04:39:33;;;;;;;0.93;0.80;;;8.90;99.90;;;;;;5053466;28;20473;-82
2021/05/15 04:42:01;;;;;;;1.70;0.70;;;8.90;99.90;;;;;;5053548;28;20482;-81
2021/05/15 04:44:29;;;;;;;1.13;0.90;;;8.90;99.90;;;;;;5053473;28;20446;-82
2021/05/15 04:46:55;;;;;;;0.90;0.90;;;9.00;99.90;;;;;;5052997;28;20500;-82
2021/05/15 04:49:22;;;;;;;0.77;0.77;;;9.00;99.90;;;;;;5053023;28;21006;-82
2021/05/15 04:51:49;;;;;;;1.37;0.80;;;9.00;99.90;;;;;;5052886;28;20812;-81
2021/05/15 04:54:15;;;;;;;1.67;0.83;;;9.10;99.90;;;;;;5053285;28;20446;-82
2021/05/15 04:56:41;;;;;;;0.80;0.80;;;9.20;99.90;;;;;;5053316;28;20472;-82
2021/05/15 04:59:07;;;;;;;0.90;0.70;;;9.30;99.90;;;;;;5052921;28;20985;-81
2021/05/15 05:01:34;;;;;;;0.80;0.80;;;9.30;99.90;;;;;;5053166;28;20849;-82
2021/05/15 05:04:03;;;;;;;1.00;0.70;;;9.40;99.90;;;;;;5053141;28;20453;-81
2021/05/15 05:06:29;;;;;;;0.70;0.70;;;9.50;99.90;;;;;;5052915;28;20960;-82
2021/05/15 05:08:55;;;;;;;0.80;0.80;;;9.70;99.90;;;;;;5053085;28;20484;-82
2021/05/15 05:11:22;;;;;;;1.43;0.60;;;9.90;99.90;;;;;;5052846;28;20822;-82
2021/05/15 05:13:48;;;;;;;0.70;0.70;;;10.00;99.90;;;;;;5053544;28;20485;-82
2021/05/15 05:16:14;;;;;;;0.80;0.80;;;10.20;99.90;;;;;;5053154;28;20472;-82
2021/05/15 05:18:41;;;;;;;1.33;0.70;;;10.30;99.90;;;;;;5052722;28;20474;-81
2021/05/15 05:21:07;;;;;;;1.13;0.70;;;10.40;99.90;;;;;;5053160;28;20457;-82
2021/05/15 05:23:34;;;;;;;2.30;1.40;;;10.50;99.90;;;;;;5053044;28;20446;-82
2021/05/15 05:26:00;;;;;;;0.70;0.70;;;10.50;99.90;;;;;;5052825;28;20828;-82
2021/05/15 05:28:32;;;;;;;0.70;0.70;;;10.60;99.90;;;;;;5052684;28;20470;-82
2021/05/15 05:30:59;;;;;;;0.60;0.60;;;10.60;99.90;;;;;;5053067;28;20484;-82
2021/05/15 05:33:25;;;;;;;0.93;0.70;;;10.70;99.90;;;;;;5052633;28;20530;-82
2021/05/15 05:35:52;;;;;;;0.63;0.63;;;10.70;99.90;;;;;;5052659;28;20441;-82
2021/05/15 05:38:18;;;;;;;2.30;0.60;;;10.80;99.90;;;;;;5052535;28;20474;-82
2021/05/15 05:40:45;;;;;;;0.90;0.80;;;10.80;99.90;;;;;;5052887;28;20461;-82
2021/05/15 05:43:11;;;;;;;1.00;0.67;;;10.90;99.90;;;;;;5052648;28;20817;-82
2021/05/15 05:45:37;;;;;;;2.30;0.60;;;10.90;99.90;;;;;;5052417;28;20466;-82
2021/05/15 05:48:04;;;;;;;0.50;0.50;;;10.90;99.90;;;;;;5052492;28;20476;-82
2021/05/15 05:50:30;;;;;;;0.57;0.57;;;10.90;99.90;;;;;;5052561;28;20447;-82
2021/05/15 05:52:58;;;;;;;1.60;0.60;;;10.80;99.90;;;;;;5052376;28;21034;-82
2021/05/15 05:55:24;;;;;;;1.47;0.70;;;10.70;99.90;;;;;;5052776;28;20486;-82
2021/05/15 05:57:50;;;;;;;0.60;0.60;;;10.70;99.90;;;;;;5052696;28;20442;-85
2021/05/15 06:00:18;;;;;;;0.70;0.70;;;10.70;99.90;;;;;;5052503;28;20942;-83
2021/05/15 06:02:44;;;;;;;0.60;0.60;;;10.60;99.90;;;;;;5052692;28;20450;-83
2021/05/15 06:05:11;;;;;;;0.80;0.80;;;10.70;99.90;;;;;;5052747;28;20495;-83
2021/05/15 06:07:37;;;;;;;1.10;0.67;;;11.00;99.90;;;;;;5052692;28;20454;-83
2021/05/15 06:10:06;;;;;;;0.97;0.87;;;11.20;99.90;;;;;;5052565;28;20469;-83
2021/05/15 06:12:32;;;;;;;1.00;0.60;;;11.60;99.90;;;;;;5052539;28;20485;-82
2021/05/15 06:15:00;;;;;;;0.50;0.50;;;11.90;99.90;;;;;;5052621;28;20454;-79
2021/05/15 06:17:26;;;;;;;0.80;0.50;;;12.10;99.90;;;;;;5055035;28;20892;-78
2021/05/15 06:19:53;;;;;;;0.60;0.60;;;12.30;99.90;;;;;;5056020;28;20473;-83
2021/05/15 06:22:19;;;;;;;0.60;0.60;;;12.50;99.90;;;;;;5055820;28;20442;-83
2021/05/15 06:24:45;;;;;;;1.37;0.60;;;12.80;99.90;;;;;;5055828;28;20799;-83
2021/05/15 06:27:12;;;;;;;0.50;0.50;;;13.30;99.90;;;;;;5056023;28;20848;-83
2021/05/15 06:29:38;;;;;;;0.97;0.73;;;13.90;99.90;;;;;;5055880;28;20803;-82
2021/05/15 06:32:05;;;;;;;0.83;0.50;;;14.10;99.90;;;;;;5055567;28;20996;-83
2021/05/15 06:34:31;;;;;;;0.77;0.60;;;14.10;99.90;;;;;;5055814;28;20465;-82
2021/05/15 06:36:58;;;;;;;0.60;0.60;;;14.10;99.90;;;;;;5055500;28;20820;-83
2021/05/15 06:39:24;;;;;;;0.60;0.60;;;13.80;99.90;;;;;;5055416;28;20985;-83
2021/05/15 06:41:50;;;;;;;1.03;0.60;;;13.80;99.90;;;;;;5055733;28;20454;-82
2021/05/15 06:44:17;;;;;;;2.10;0.60;;;13.80;99.90;;;;;;5055709;28;20438;-83
2021/05/15 06:46:44;;;;;;;0.60;0.60;;;13.90;99.90;;;;;;5055188;28;20481;-83
2021/05/15 06:49:10;;;;;;;1.73;0.60;;;13.80;99.90;;;;;;5055277;28;20484;-83
2021/05/15 06:51:36;;;;;;;0.60;0.60;;;13.70;99.90;;;;;;5055582;28;20437;-82
2021/05/15 06:54:03;;;;;;;0.70;0.60;;;13.40;99.90;;;;;;5055145;28;20996;-82
2021/05/15 06:56:30;;;;;;;0.70;0.70;;;13.10;99.90;;;;;;5055501;28;20453;-82
2021/05/15 06:58:56;;;;;;;1.33;0.60;;;12.90;99.90;;;;;;5055067;28;20473;-82
2021/05/15 07:01:25;;;;;;;0.63;0.63;;;12.80;99.90;;;;;;5055121;28;20487;-82
2021/05/15 07:03:51;;;;;;;0.83;0.60;;;12.70;99.90;;;;;;5055401;28;20422;-83
2021/05/15 07:06:17;;;;;;;0.60;0.60;;;12.60;99.90;;;;;;5055161;28;20461;-82
2021/05/15 07:08:43;;;;;;;0.67;0.67;;;12.60;99.90;;;;;;5055087;28;20533;-83
2021/05/15 07:11:09;;;;;;;0.60;0.60;;;12.60;99.90;;;;;;5055227;28;20441;-82
2021/05/15 07:13:36;;;;;;;1.83;0.60;;;12.70;99.90;;;;;;5055139;28;20477;-78
2021/05/15 07:16:02;;;;;;;0.60;0.60;;;12.80;99.90;;;;;;5055101;28;20488;-78
2021/05/15 07:18:29;;;;;;;1.33;0.70;;;12.70;99.90;;;;;;5054970;28;20504;-78
2021/05/15 07:20:55;;;;;;;0.77;0.53;;;12.70;99.90;;;;;;5055023;28;20445;-78
2021/05/15 07:23:22;;;;;;;1.43;0.50;;;12.60;99.90;;;;;;5054936;28;20442;-79
2021/05/15 07:25:48;;;;;;;0.80;0.70;;;12.60;99.90;;;;;;5054596;28;20457;-79
2021/05/15 07:28:14;;;;;;;1.27;0.57;;;12.60;99.90;;;;;;5053629;28;20481;-78
2021/05/15 07:30:41;;;;;;;0.53;0.53;;;12.80;99.90;;;;;;5054455;28;20508;-78
2021/05/15 07:33:08;;;;;;;3.23;0.80;;;12.80;99.90;;;;;;5054380;28;20488;-78
2021/05/15 07:35:35;;;;;;;0.60;0.60;;;12.90;99.90;;;;;;5054734;28;20446;-78
2021/05/15 07:38:01;;;;;;;0.70;0.60;;;13.00;99.90;;;;;;5054599;28;20449;-79
2021/05/15 07:40:27;;;;;;;0.70;0.63;;;13.20;99.90;;;;;;5054631;28;20449;-79
2021/05/15 07:42:53;;;;;;;0.80;0.77;;;13.20;99.90;;;;;;5054277;28;20953;-78
2021/05/15 07:45:20;;;;;;;0.80;0.60;;;13.20;99.90;;;;;;5054304;28;20456;-81
2021/05/15 07:47:46;;;;;;;0.60;0.60;;;13.30;99.90;;;;;;5054435;28;20789;-78
2021/05/15 07:50:12;;;;;;;0.93;0.67;;;13.40;99.90;;;;;;5054128;28;20449;-79
2021/05/15 07:52:40;;;;;;;0.93;0.93;;;13.50;99.90;;;;;;5054376;28;20481;-79
2021/05/15 07:55:07;;;;;;;0.60;0.60;;;13.60;99.90;;;;;;5054075;28;20445;-80
2021/05/15 07:57:34;;;;;;;1.93;0.77;;;13.80;99.90;;;;;;5054026;28;20437;-80
2021/05/15 08:00:00;;;;;;;0.60;0.60;;;13.80;99.90;;;;;;5054181;28;20472;-79
2021/05/15 08:02:27;;;;;;;1.03;0.60;;;13.90;99.90;;;;;;5053926;28;20442;-78
2021/05/15 08:04:55;;;;;;;2.20;0.60;;;14.10;99.90;;;;;;5054079;28;20453;-78
2021/05/15 08:07:21;;;;;;;1.67;0.70;;;14.40;99.90;;;;;;5053811;28;20937;-83
2021/05/15 08:09:48;;;;;;;1.33;0.50;;;14.40;99.90;;;;;;5053679;28;20968;-83
2021/05/15 08:12:15;;;;;;;0.77;0.53;;;14.30;99.90;;;;;;5053936;28;20482;-83
2021/05/15 08:14:41;;;;;;;0.70;0.70;;;14.10;99.90;;;;;;5053931;28;20453;-83
2021/05/15 08:17:07;;;;;;;0.50;0.50;;;13.90;99.90;;;;;;5053629;28;20957;-78
2021/05/15 08:19:34;;;;;;;0.80;0.70;;;13.80;99.90;;;;;;5053792;28;20496;-78
2021/05/15 08:22:00;;;;;;;2.00;0.60;;;13.70;99.90;;;;;;5053426;28;20456;-79
2021/05/15 08:24:26;;;;;;;0.60;0.60;;;13.60;99.90;;;;;;5053780;28;20454;-82
2021/05/15 08:26:55;;;;;;;0.53;0.53;;;13.60;99.90;;;;;;5053772;28;20464;-82
2021/05/15 08:29:23;;;;;;;0.80;0.73;;;13.50;99.90;;;;;;5053620;28;20491;-82
2021/05/15 08:31:50;;;;;;;0.70;0.70;;;13.60;99.90;;;;;;5053389;28;20446;-82
2021/05/15 08:34:16;;;;;;;0.70;0.70;;;13.70;99.90;;;;;;5053447;28;20474;-78
2021/05/15 08:36:43;;;;;;;1.23;0.80;;;13.80;99.90;;;;;;5053611;28;20510;-78
2021/05/15 08:39:09;;;;;;;1.37;0.70;;;13.80;99.90;;;;;;5053139;28;20470;-78
2021/05/15 08:41:35;;;;;;;0.70;0.70;;;13.70;99.90;;;;;;5053560;28;20475;-78
2021/05/15 08:44:04;;;;;;;0.70;0.70;;;13.70;99.90;;;;;;5053552;28;20438;-79
2021/05/15 08:46:31;;;;;;;0.80;0.60;;;13.80;99.90;;;;;;5053135;28;20513;-78
2021/05/15 08:49:02;;;;;;;0.70;0.70;;;13.90;99.90;;;;;;5053337;28;20481;-78
2021/05/15 08:51:29;;;;;;;0.87;0.70;;;14.00;99.90;;;;;;5053141;28;20826;-77
2021/05/15 08:53:57;;;;;;;0.60;0.60;;;14.20;99.90;;;;;;5053277;28;20488;-78
2021/05/15 08:56:24;;;;;;;0.60;0.60;;;14.40;99.90;;;;;;5053394;28;20442;-78
2021/05/15 08:58:51;;;;;;;0.80;0.60;;;14.60;99.90;;;;;;5053337;28;20465;-79
2021/05/15 09:01:18;;;;;;;0.90;0.90;;;14.70;99.90;;;;;;5053374;28;20442;-78
2021/05/15 09:03:45;;;;;;;1.27;0.80;;;14.70;99.90;;;;;;5053298;28;20480;-78
2021/05/15 09:06:11;;;;;;;0.90;0.60;;;14.80;99.90;;;;;;5053269;28;20438;-78
2021/05/15 09:08:38;;;;;;;1.00;0.70;;;15.00;99.90;;;;;;5052875;28;20992;-78
2021/05/15 09:11:05;;;;;;;0.70;0.60;;;15.20;99.90;;;;;;5053268;28;20434;-78
2021/05/15 09:13:32;;;;;;;0.60;0.60;;;15.50;99.90;;;;;;5053156;28;20473;-81
2021/05/15 09:16:02;;;;;;;1.67;1.43;;;15.60;99.90;;;;;;5053241;28;20437;-78
2021/05/15 09:18:32;;;;;;;1.10;0.60;;;15.80;99.90;;;;;;5052817;28;21007;-78
2021/05/15 09:21:00;;;;;;;0.80;0.60;;;16.00;99.90;;;;;;5053581;28;20484;-78
2021/05/15 09:23:27;;;;;;;0.70;0.70;;;16.20;99.90;;;;;;5052848;28;20901;-78
2021/05/15 09:25:59;;;;;;;0.70;0.70;;;16.30;99.90;;;;;;5052783;28;20453;-78
2021/05/15 09:28:48;;;;;;;0.90;0.90;;;16.70;99.90;;;;;;5052994;28;20461;-78
2021/05/15 09:31:20;;;;;;;0.70;0.70;;;17.00;98.20;;;;;;5050027;28;20442;-79
2021/05/15 09:33:50;;;;;;;0.63;0.63;;;17.10;96.60;;;;;;5052947;28;20475;-79
2021/05/15 09:36:19;;;;;;;0.70;0.70;;;17.20;97.10;;;;;;5053005;28;20437;-78
2021/05/15 09:38:45;;;;;;;0.77;0.77;;;17.50;95.70;;;;;;5052915;28;20472;-79
2021/05/15 09:41:12;;;;;;;0.70;0.70;;;18.20;96.30;;;;;;5053560;28;20430;-79
2021/05/15 09:43:38;;;;;;;0.60;0.60;;;18.60;93.60;;;;;;5052981;28;20430;-79
2021/05/15 09:46:05;;;;;;;1.67;0.60;;;18.70;92.20;;;;;;5052589;28;20461;-79
2021/05/15 09:48:38;;;;;;;1.57;0.70;;;18.50;92.60;;;;;;5052772;28;20477;-79
2021/05/15 09:51:16;;;;;;;0.90;0.90;;;18.30;90.80;;;;;;5053630;28;20438;-79
2021/05/15 09:53:43;;;;;;;2.10;1.47;;;18.30;90.70;;;;;;5056609;28;20474;-80
2021/05/15 09:56:10;;;;;;;0.70;0.60;;;18.10;90.00;;;;;;5057116;28;20453;-78
2021/05/15 09:58:37;;;;;;;2.67;0.80;;;18.20;90.00;;;;;;5056487;28;20473;-79
2021/05/15 10:01:03;;;;;;;2.70;1.33;;;18.30;89.70;;;;;;5056242;28;20440;-79
2021/05/15 10:03:32;;;;;;;2.00;0.90;;;18.00;85.00;;;;;;5056212;28;20434;-79
2021/05/15 10:06:01;;;;;;;1.07;0.70;;;17.70;86.20;;;;;;5056485;28;20438;-79
2021/05/15 10:08:29;;;;;;;1.17;1.03;;;17.80;89.00;;;;;;5056276;28;20957;-79
2021/05/15 10:10:56;;;;;;;0.90;0.60;;;18.00;88.40;;;;;;5056906;28;20430;-79
2021/05/15 10:13:22;;;;;;;1.33;0.83;;;18.50;87.50;;;;;;5055929;28;20976;-79
2021/05/15 10:15:49;;;;;;;0.97;0.70;;;18.80;84.80;;;;;;5056711;28;20442;-78
2021/05/15 10:18:16;;;;;;;1.00;0.50;;;18.80;79.00;;;;;;5056149;28;20461;-78
2021/05/15 10:20:44;;;;;;;1.80;0.60;;;18.90;80.80;;;;;;5056739;28;20429;-78
2021/05/15 10:23:18;;;;;;;4.47;0.63;;;19.00;76.00;;;;;;5056163;28;20950;-79
2021/05/15 10:25:46;;;;;;;1.00;0.60;;;18.90;74.80;;;;;;5056093;28;20441;-79
2021/05/15 10:28:15;;;;;;;2.13;0.70;;;19.20;75.40;;;;;;5055749;28;20458;-79
2021/05/15 10:30:42;;;;;;;1.97;0.87;;;19.00;73.30;;;;;;5056002;28;20446;-78
2021/05/15 10:33:10;;;;;;;3.53;0.70;;;18.90;73.70;;;;;;5055760;28;20488;-79
2021/05/15 10:35:42;;;;;;;0.70;0.57;;;18.80;73.40;;;;;;5055559;28;20876;-79
2021/05/15 10:38:10;;;;;;;0.60;0.60;;;18.50;72.00;;;;;;5055427;28;20823;-79
2021/05/15 10:40:48;;;;;;;0.70;0.63;;;18.10;74.50;;;;;;5055414;28;20461;-79
2021/05/15 10:43:29;;;;;;;0.60;0.60;;;17.90;76.40;;;;;;5055648;28;20499;-79
2021/05/15 10:45:56;;;;;;;0.70;0.60;;;17.70;74.30;;;;;;5055155;28;20480;-79
2021/05/15 10:48:27;;;;;;;1.47;0.80;;;17.50;76.60;;;;;;5055283;28;20477;-78
2021/05/15 10:50:55;;;;;;;1.57;0.77;;;17.10;77.60;;;;;;5055336;28;20504;-79
2021/05/15 10:53:24;;;;;;;4.57;0.80;;;16.90;79.60;;;;;;5055460;28;20984;-79
2021/05/15 10:56:13;;;;;;;1.10;0.70;;;16.70;77.10;;;;;;5054958;28;21007;-78
2021/05/15 10:58:41;;;;;;;3.07;0.80;;;16.50;78.50;;;;;;5055113;28;20470;-78
2021/05/15 11:01:10;;;;;;;1.17;0.70;;;16.30;79.80;;;;;;5055304;28;20453;-78
2021/05/15 11:03:36;;;;;;;2.93;1.10;;;16.20;80.60;;;;;;5054540;28;20446;-78
2021/05/15 11:06:16;;;;;;;3.00;1.00;;;16.20;82.80;;;;;;5055167;28;20545;-78
2021/05/15 11:08:44;;;;;;;0.60;0.60;;;16.20;82.60;;;;;;5054964;28;20465;-78
2021/05/15 11:11:12;;;;;;;1.73;0.60;;;16.20;81.50;;;;;;5054685;28;20430;-78
2021/05/15 11:13:49;;;;;;;0.90;0.60;;;16.20;79.80;;;;;;5054692;28;20477;-78
2021/05/15 11:16:16;;;;;;;1.33;0.70;;;16.40;80.70;;;;;;5054825;28;20434;-78
2021/05/15 11:18:42;;;;;;;1.33;0.67;;;16.40;78.10;;;;;;5054798;28;20878;-78
2021/05/15 11:21:09;;;;;;;1.07;0.63;;;16.40;77.50;;;;;;5054630;28;20442;-78
2021/05/15 11:23:47;;;;;;;0.87;0.60;;;16.50;79.70;;;;;;5054917;28;20446;-78
2021/05/15 11:26:19;;;;;;;0.77;0.70;;;16.50;76.50;;;;;;5054776;28;20488;-79
2021/05/15 11:28:45;;;;;;;1.00;0.53;;;16.60;76.70;;;;;;5054359;28;20509;-78
2021/05/15 11:31:13;;;;;;;3.00;0.73;;;16.70;78.90;;;;;;5054373;28;20476;-79
2021/05/15 11:33:39;;;;;;;1.20;0.70;;;16.80;80.30;;;;;;5054545;28;20622;-78
2021/05/15 11:36:06;;;;;;;0.80;0.60;;;16.80;78.80;;;;;;5054415;28;20854;-78
2021/05/15 11:38:33;;;;;;;4.00;0.70;;;16.60;78.90;;;;;;5054111;28;20461;-79
2021/05/15 11:41:01;;;;;;;1.47;0.90;;;16.80;79.30;;;;;;5054504;28;20449;-78
2021/05/15 11:43:31;;;;;;;0.80;0.80;;;16.90;80.60;;;;;;5054385;28;20438;-78
2021/05/15 11:45:58;;;;;;;3.03;0.80;;;17.00;79.40;;;;;;5053934;28;20477;-79
2021/05/15 11:48:25;;;;;;;0.70;0.70;;;17.30;76.30;;;;;;5053950;28;20973;-78
2021/05/15 11:50:59;;;;;;;0.70;0.70;;;17.30;77.80;;;;;;5054063;28;20507;-78
2021/05/15 11:53:26;;;;;;;1.10;0.80;;;17.30;75.70;;;;;;5054142;28;20496;-78
2021/05/15 11:55:52;;;;;;;0.97;0.73;;;17.20;74.50;;;;;;5054128;28;20445;-79
2021/05/15 11:58:19;;;;;;;0.90;0.57;;;17.10;74.60;;;;;;5053723;28;20993;-79
2021/05/15 12:00:47;;;;;;;2.40;0.83;;;16.90;75.10;;;;;;5053648;28;20479;-78
2021/05/15 12:03:19;;;;;;;0.83;0.50;;;16.70;76.30;;;;;;5054204;28;20504;-80
2021/05/15 12:05:46;;;;;;;0.77;0.77;;;16.70;75.70;;;;;;5053988;28;20414;-79
2021/05/15 12:08:13;;;;;;;1.10;0.93;;;16.80;75.60;;;;;;5053863;28;20454;-78
2021/05/15 12:10:40;;;;;;;0.67;0.67;;;16.70;75.00;;;;;;5053956;28;20449;-78
2021/05/15 12:13:08;;;;;;;0.70;0.70;;;16.80;76.30;;;;;;5053692;28;20481;-78
2021/05/15 12:15:37;;;;;;;0.50;0.50;;;16.90;73.50;;;;;;5053003;28;20445;-79
2021/05/15 12:18:05;;;;;;;0.90;0.70;;;16.90;73.90;;;;;;5053482;28;21201;-79
2021/05/15 12:20:34;;;;;;;0.60;0.60;;;17.00;76.50;;;;;;5053340;28;20941;-78
2021/05/15 12:23:08;;;;;;;1.03;0.60;;;17.10;75.90;;;;;;5053572;28;20454;-78
2021/05/15 12:25:35;;;;;;;3.03;0.70;;;17.20;75.20;;;;;;5053346;28;20528;-78
2021/05/15 12:28:02;;;;;;;0.83;0.60;;;17.00;73.70;;;;;;5053951;28;20465;-78
2021/05/15 12:30:28;;;;;;;2.30;0.80;;;17.00;75.50;;;;;;5053460;28;20445;-78
2021/05/15 12:33:02;;;;;;;2.20;0.87;;;17.10;76.80;;;;;;5053192;28;20474;-78
2021/05/15 12:35:30;;;;;;;0.63;0.60;;;17.20;76.70;;;;;;5053460;28;20457;-78
2021/05/15 12:37:57;;;;;;;1.47;0.70;;;17.10;74.80;;;;;;5053801;28;20461;-78
2021/05/15 12:40:27;;;;;;;0.80;0.63;;;16.90;75.50;;;;;;5053359;28;20443;-78
2021/05/15 12:42:54;;;;;;;1.40;0.67;;;16.90;77.80;;;;;;5053364;28;20445;-78
2021/05/15 12:45:21;;;;;;;1.87;0.70;;;16.90;78.60;;;;;;5053081;28;20434;-78
2021/05/15 12:47:48;;;;;;;0.50;0.50;;;16.90;75.50;;;;;;5052868;28;20936;-78
2021/05/15 12:50:21;;;;;;;0.77;0.70;;;16.80;74.70;;;;;;5053314;28;20493;-78
2021/05/15 12:52:48;;;;;;;1.17;0.60;;;16.80;75.40;;;;;;5053163;28;20482;-78